sensor_id;sensor_type;location;lat;lon;timestamp;pressure;altitude;pressure_sealevel;temperature;humidity
9189;BME280;34313;50.780;6.084;2024-02-15T00:01:18;99693.84;;;12.16;nan
9189;BME280;34313;50.780;6.084;2024-02-15T00:03:43;99700.09;;;12.15;nan
9189;BME280;34313;50.780;6.084;2024-02-15T00:06:08;99698.47;;;12.13;nan
9189;BME280;34313;50.780;6.084;2024-02-15T00:08:33;99699.44;;;12.12;nan
9189;BME280;34313;50.780;6.084;2024-02-15T00:11:00;99691.28;;;12.15;nan
9189;BME280;34313;50.780;6.084;2024-02-15T00:13:25;99701.59;;;12.19;nan
9189;BME280;34313;50.780;6.084;2024-02-15T00:15:50;99693.84;;;12.16;nan
9189;BME280;34313;50.780;6.084;2024-02-15T00:18:15;99701.69;;;12.18;nan
9189;BME280;34313;50.780;6.084;2024-02-15T00:20:41;99696.31;;;12.19;nan
9189;BME280;34313;50.780;6.084;2024-02-15T00:23:06;99692.91;;;12.17;nan
9189;BME280;34313;50.780;6.084;2024-02-15T00:25:32;99691.03;;;12.19;nan
9189;BME280;34313;50.780;6.084;2024-02-15T00:27:58;99697.16;;;12.20;nan
9189;BME280;34313;50.780;6.084;2024-02-15T00:30:25;99689.53;;;12.15;nan
9189;BME280;34313;50.780;6.084;2024-02-15T00:32:52;99697.25;;;12.18;nan
9189;BME280;34313;50.780;6.084;2024-02-15T00:35:17;99701.69;;;12.18;nan
9189;BME280;34313;50.780;6.084;2024-02-15T00:37:44;99699.88;;;12.18;nan
9189;BME280;34313;50.780;6.084;2024-02-15T00:40:10;99692.72;;;12.20;nan
9189;BME280;34313;50.780;6.084;2024-02-15T00:42:36;99694.72;;;12.17;nan
9189;BME280;34313;50.780;6.084;2024-02-15T00:45:01;99692.72;;;12.20;nan
9189;BME280;34313;50.780;6.084;2024-02-15T00:47:27;99686.78;;;12.17;nan
9189;BME280;34313;50.780;6.084;2024-02-15T00:49:53;99687.53;;;12.19;nan
9189;BME280;34313;50.780;6.084;2024-02-15T00:52:19;99682.53;;;12.14;nan
9189;BME280;34313;50.780;6.084;2024-02-15T00:54:45;99692.06;;;12.17;nan
9189;BME280;34313;50.780;6.084;2024-02-15T00:57:10;99686.00;;;12.15;nan
9189;BME280;34313;50.780;6.084;2024-02-15T00:59:36;99691.22;;;12.16;nan
9189;BME280;34313;50.780;6.084;2024-02-15T01:02:01;99692.72;;;12.20;nan
9189;BME280;34313;50.780;6.084;2024-02-15T01:04:27;99695.56;;;12.17;nan
9189;BME280;34313;50.780;6.084;2024-02-15T01:06:53;99694.72;;;12.17;nan
9189;BME280;34313;50.780;6.084;2024-02-15T01:09:18;99695.84;;;12.13;nan
9189;BME280;34313;50.780;6.084;2024-02-15T01:11:43;99688.28;;;12.21;nan
9189;BME280;34313;50.780;6.084;2024-02-15T01:14:09;99694.81;;;12.15;nan
9189;BME280;34313;50.780;6.084;2024-02-15T01:16:35;99685.84;;;12.18;nan
9189;BME280;34313;50.780;6.084;2024-02-15T01:19:01;99677.06;;;12.17;nan
9189;BME280;34313;50.780;6.084;2024-02-15T01:21:26;99678.66;;;12.20;nan
9189;BME280;34313;50.780;6.084;2024-02-15T01:23:52;99684.69;;;12.22;nan
9189;BME280;34313;50.780;6.084;2024-02-15T01:26:19;99686.66;;;12.18;nan
9189;BME280;34313;50.780;6.084;2024-02-15T01:28:45;99680.44;;;12.19;nan
9189;BME280;34313;50.780;6.084;2024-02-15T01:31:10;99680.38;;;12.21;nan
9189;BME280;34313;50.780;6.084;2024-02-15T01:33:39;99678.47;;;12.23;nan
9189;BME280;34313;50.780;6.084;2024-02-15T01:36:04;99688.09;;;12.24;nan
9189;BME280;34313;50.780;6.084;2024-02-15T01:38:30;99671.00;;;12.29;nan
9189;BME280;34313;50.780;6.084;2024-02-15T01:40:55;99674.81;;;12.25;nan
9189;BME280;34313;50.780;6.084;2024-02-15T01:43:20;99669.41;;;12.27;nan
9189;BME280;34313;50.780;6.084;2024-02-15T01:45:46;99668.66;;;12.25;nan
9189;BME280;34313;50.780;6.084;2024-02-15T01:48:17;99670.53;;;12.23;nan
9189;BME280;34313;50.780;6.084;2024-02-15T01:50:42;99670.25;;;12.27;nan
9189;BME280;34313;50.780;6.084;2024-02-15T01:53:09;99660.16;;;12.20;nan
9189;BME280;34313;50.780;6.084;2024-02-15T01:55:35;99664.00;;;12.28;nan
9189;BME280;34313;50.780;6.084;2024-02-15T01:58:01;99669.13;;;12.32;nan
9189;BME280;34313;50.780;6.084;2024-02-15T02:00:27;99659.59;;;12.29;nan
9189;BME280;34313;50.780;6.084;2024-02-15T02:02:53;99648.25;;;12.27;nan
9189;BME280;34313;50.780;6.084;2024-02-15T02:05:19;99655.81;;;12.33;nan
9189;BME280;34313;50.780;6.084;2024-02-15T02:07:44;99655.25;;;12.28;nan
9189;BME280;34313;50.780;6.084;2024-02-15T02:10:10;99645.16;;;12.35;nan
9189;BME280;34313;50.780;6.084;2024-02-15T02:12:40;99643.44;;;12.34;nan
9189;BME280;34313;50.780;6.084;2024-02-15T02:15:06;99633.53;;;12.23;nan
9189;BME280;34313;50.780;6.084;2024-02-15T02:17:33;99627.03;;;12.28;nan
9189;BME280;34313;50.780;6.084;2024-02-15T02:19:59;99619.31;;;12.25;nan
9189;BME280;34313;50.780;6.084;2024-02-15T02:22:24;99612.03;;;12.29;nan
9189;BME280;34313;50.780;6.084;2024-02-15T02:25:06;99609.25;;;12.30;nan
9189;BME280;34313;50.780;6.084;2024-02-15T02:27:33;99602.41;;;12.28;nan
9189;BME280;34313;50.780;6.084;2024-02-15T02:29:59;99600.81;;;12.25;nan
9189;BME280;34313;50.780;6.084;2024-02-15T02:32:26;99602.94;;;12.33;nan
9189;BME280;34313;50.780;6.084;2024-02-15T02:34:52;99603.31;;;12.27;nan
9189;BME280;34313;50.780;6.084;2024-02-15T02:37:23;99604.19;;;12.27;nan
9189;BME280;34313;50.780;6.084;2024-02-15T02:39:49;99602.94;;;12.33;nan
9189;BME280;34313;50.780;6.084;2024-02-15T02:42:14;99601.78;;;12.37;nan
9189;BME280;34313;50.780;6.084;2024-02-15T02:44:40;99600.88;;;12.38;nan
9189;BME280;34313;50.780;6.084;2024-02-15T02:47:05;99598.97;;;12.40;nan
9189;BME280;34313;50.780;6.084;2024-02-15T02:49:30;99591.97;;;12.39;nan
9189;BME280;34313;50.780;6.084;2024-02-15T02:51:56;99594.19;;;12.33;nan
9189;BME280;34313;50.780;6.084;2024-02-15T02:54:21;99589.56;;;12.22;nan
9189;BME280;34313;50.780;6.084;2024-02-15T02:56:46;99596.19;;;12.15;nan
9189;BME280;34313;50.780;6.084;2024-02-15T02:59:12;99589.22;;;12.14;nan
9189;BME280;34313;50.780;6.084;2024-02-15T03:01:37;99584.22;;;12.09;nan
9189;BME280;34313;50.780;6.084;2024-02-15T03:04:05;99576.13;;;11.98;nan
9189;BME280;34313;50.780;6.084;2024-02-15T03:06:30;99575.16;;;11.84;nan
9189;BME280;34313;50.780;6.084;2024-02-15T03:08:55;99572.13;;;11.76;nan
9189;BME280;34313;50.780;6.084;2024-02-15T03:11:21;99574.22;;;11.71;nan
9189;BME280;34313;50.780;6.084;2024-02-15T03:13:47;99564.03;;;11.65;nan
9189;BME280;34313;50.780;6.084;2024-02-15T03:16:13;99574.13;;;11.58;nan
9189;BME280;34313;50.780;6.084;2024-02-15T03:18:38;99573.66;;;11.51;nan
9189;BME280;34313;50.780;6.084;2024-02-15T03:21:04;99574.31;;;11.55;nan
9189;BME280;34313;50.780;6.084;2024-02-15T03:23:29;99574.53;;;11.52;nan
9189;BME280;34313;50.780;6.084;2024-02-15T03:25:54;99581.00;;;11.46;nan
9189;BME280;34313;50.780;6.084;2024-02-15T03:28:20;99572.16;;;11.47;nan
9189;BME280;34313;50.780;6.084;2024-02-15T03:30:46;99570.00;;;11.40;nan
9189;BME280;34313;50.780;6.084;2024-02-15T03:33:11;99567.53;;;11.37;nan
9189;BME280;34313;50.780;6.084;2024-02-15T03:35:38;99568.38;;;11.37;nan
9189;BME280;34313;50.780;6.084;2024-02-15T03:38:04;99560.25;;;11.26;nan
9189;BME280;34313;50.780;6.084;2024-02-15T03:40:29;99555.16;;;11.23;nan
9189;BME280;34313;50.780;6.084;2024-02-15T03:42:56;99560.22;;;11.11;nan
9189;BME280;34313;50.780;6.084;2024-02-15T03:45:21;99558.78;;;11.06;nan
9189;BME280;34313;50.780;6.084;2024-02-15T03:47:54;99549.22;;;11.05;nan
9189;BME280;34313;50.780;6.084;2024-02-15T03:50:21;99551.84;;;11.05;nan
9189;BME280;34313;50.780;6.084;2024-02-15T03:52:49;99556.16;;;11.06;nan
9189;BME280;34313;50.780;6.084;2024-02-15T03:55:16;99551.34;;;10.98;nan
9189;BME280;34313;50.780;6.084;2024-02-15T03:57:41;99554.56;;;11.03;nan
9189;BME280;34313;50.780;6.084;2024-02-15T04:00:09;99556.16;;;11.06;nan
9189;BME280;34313;50.780;6.084;2024-02-15T04:02:36;99553.53;;;11.06;nan
9189;BME280;34313;50.780;6.084;2024-02-15T04:05:02;99553.34;;;11.09;nan
9189;BME280;34313;50.780;6.084;2024-02-15T04:07:30;99553.75;;;11.17;nan
9189;BME280;34313;50.780;6.084;2024-02-15T04:09:56;99555.34;;;11.20;nan
9189;BME280;34313;50.780;6.084;2024-02-15T04:12:21;99547.91;;;11.26;nan
9189;BME280;34313;50.780;6.084;2024-02-15T04:14:47;99549.81;;;11.24;nan
9189;BME280;34313;50.780;6.084;2024-02-15T04:17:13;99553.84;;;11.30;nan
9189;BME280;34313;50.780;6.084;2024-02-15T04:19:39;99550.56;;;11.26;nan
9189;BME280;34313;50.780;6.084;2024-02-15T04:22:04;99562.44;;;11.33;nan
9189;BME280;34313;50.780;6.084;2024-02-15T04:24:32;99563.25;;;11.34;nan
9189;BME280;34313;50.780;6.084;2024-02-15T04:26:58;99563.25;;;11.34;nan
9189;BME280;34313;50.780;6.084;2024-02-15T04:29:24;99560.63;;;11.34;nan
9189;BME280;34313;50.780;6.084;2024-02-15T04:31:49;99563.84;;;11.39;nan
9189;BME280;34313;50.780;6.084;2024-02-15T04:34:15;99562.66;;;11.45;nan
9189;BME280;34313;50.780;6.084;2024-02-15T04:36:43;99565.28;;;11.45;nan
9189;BME280;34313;50.780;6.084;2024-02-15T04:39:10;99561.13;;;11.41;nan
9189;BME280;34313;50.780;6.084;2024-02-15T04:41:37;99567.34;;;11.40;nan
9189;BME280;34313;50.780;6.084;2024-02-15T04:44:04;99563.75;;;11.41;nan
9189;BME280;34313;50.780;6.084;2024-02-15T04:46:30;99559.44;;;11.40;nan
9189;BME280;34313;50.780;6.084;2024-02-15T04:48:55;99564.50;;;11.43;nan
9189;BME280;34313;50.780;6.084;2024-02-15T04:51:23;99566.03;;;11.47;nan
9189;BME280;34313;50.780;6.084;2024-02-15T04:53:48;99565.56;;;11.54;nan
9189;BME280;34313;50.780;6.084;2024-02-15T04:56:14;99557.53;;;11.56;nan
9189;BME280;34313;50.780;6.084;2024-02-15T04:58:40;99552.81;;;11.61;nan
9189;BME280;34313;50.780;6.084;2024-02-15T05:01:16;99552.00;;;11.61;nan
9189;BME280;34313;50.780;6.084;2024-02-15T05:03:42;99552.34;;;11.69;nan
9189;BME280;34313;50.780;6.084;2024-02-15T05:06:08;99557.34;;;11.73;nan
9189;BME280;34313;50.780;6.084;2024-02-15T05:08:34;99552.81;;;11.76;nan
9189;BME280;34313;50.780;6.084;2024-02-15T05:11:11;99553.28;;;11.82;nan
9189;BME280;34313;50.780;6.084;2024-02-15T05:13:44;99562.78;;;11.85;nan
9189;BME280;34313;50.780;6.084;2024-02-15T05:16:10;99558.16;;;11.88;nan
9189;BME280;34313;50.780;6.084;2024-02-15T05:18:35;99550.38;;;11.87;nan
9189;BME280;34313;50.780;6.084;2024-02-15T05:21:01;99555.38;;;11.91;nan
9189;BME280;34313;50.780;6.084;2024-02-15T05:23:28;99543.56;;;11.97;nan
9189;BME280;34313;50.780;6.084;2024-02-15T05:25:53;99529.25;;;12.01;nan
9189;BME280;34313;50.780;6.084;2024-02-15T05:28:19;99539.81;;;12.01;nan
9189;BME280;34313;50.780;6.084;2024-02-15T05:31:08;99530.47;;;11.96;nan
9189;BME280;34313;50.780;6.084;2024-02-15T05:33:34;99524.59;;;12.05;nan
9189;BME280;34313;50.780;6.084;2024-02-15T05:36:00;99523.75;;;12.04;nan
9189;BME280;34313;50.780;6.084;2024-02-15T05:38:25;99520.16;;;12.05;nan
9189;BME280;34313;50.780;6.084;2024-02-15T05:40:50;99521.22;;;12.03;nan
9189;BME280;34313;50.780;6.084;2024-02-15T05:43:15;99514.69;;;12.08;nan
9189;BME280;34313;50.780;6.084;2024-02-15T05:45:42;99519.13;;;12.08;nan
9189;BME280;34313;50.780;6.084;2024-02-15T05:48:07;99525.63;;;12.17;nan
9189;BME280;34313;50.780;6.084;2024-02-15T05:50:33;99520.53;;;12.14;nan
9189;BME280;34313;50.780;6.084;2024-02-15T05:52:59;99516.06;;;12.14;nan
9189;BME280;34313;50.780;6.084;2024-02-15T05:55:26;99517.88;;;12.14;nan
9189;BME280;34313;50.780;6.084;2024-02-15T05:57:52;99519.47;;;12.16;nan
9189;BME280;34313;50.780;6.084;2024-02-15T06:00:18;99506.41;;;12.27;nan
9189;BME280;34313;50.780;6.084;2024-02-15T06:02:44;99510.19;;;12.23;nan
9189;BME280;34313;50.780;6.084;2024-02-15T06:05:09;99505.56;;;12.27;nan
9189;BME280;34313;50.780;6.084;2024-02-15T06:07:35;99502.72;;;12.30;nan
9189;BME280;34313;50.780;6.084;2024-02-15T06:10:00;99496.97;;;12.23;nan
9189;BME280;34313;50.780;6.084;2024-02-15T06:12:29;99499.44;;;12.26;nan
9189;BME280;34313;50.780;6.084;2024-02-15T06:14:55;99497.75;;;12.25;nan
9189;BME280;34313;50.780;6.084;2024-02-15T06:17:21;99497.84;;;12.24;nan
9189;BME280;34313;50.780;6.084;2024-02-15T06:19:46;99493.50;;;12.23;nan
9189;BME280;34313;50.780;6.084;2024-02-15T06:22:11;99495.84;;;12.27;nan
9189;BME280;34313;50.780;6.084;2024-02-15T06:24:38;99500.63;;;12.35;nan
9189;BME280;34313;50.780;6.084;2024-02-15T06:27:05;99501.16;;;12.40;nan
9189;BME280;34313;50.780;6.084;2024-02-15T06:29:31;99496.19;;;12.36;nan
9189;BME280;34313;50.780;6.084;2024-02-15T06:32:14;99494.59;;;12.33;nan
9189;BME280;34313;50.780;6.084;2024-02-15T06:34:58;99499.13;;;12.31;nan
9189;BME280;34313;50.780;6.084;2024-02-15T06:37:42;99491.94;;;12.33;nan
9189;BME280;34313;50.780;6.084;2024-02-15T06:40:27;99498.81;;;12.36;nan
9189;BME280;34313;50.780;6.084;2024-02-15T06:42:52;99503.25;;;12.35;nan
9189;BME280;34313;50.780;6.084;2024-02-15T06:45:17;99508.25;;;12.40;nan
9189;BME280;34313;50.780;6.084;2024-02-15T06:47:46;99504.66;;;12.41;nan
9189;BME280;34313;50.780;6.084;2024-02-15T06:50:12;99499.06;;;12.45;nan
9189;BME280;34313;50.780;6.084;2024-02-15T06:52:38;99503.44;;;12.46;nan
9189;BME280;34313;50.780;6.084;2024-02-15T06:55:06;99496.22;;;12.48;nan
9189;BME280;34313;50.780;6.084;2024-02-15T06:57:35;99503.75;;;12.55;nan
9189;BME280;34313;50.780;6.084;2024-02-15T07:00:04;99496.16;;;12.63;nan
9189;BME280;34313;50.780;6.084;2024-02-15T07:02:33;99489.25;;;12.60;nan
9189;BME280;34313;50.780;6.084;2024-02-15T07:04:59;99488.31;;;12.61;nan
9189;BME280;34313;50.780;6.084;2024-02-15T07:07:24;99495.41;;;12.61;nan
9189;BME280;34313;50.780;6.084;2024-02-15T07:09:50;99493.50;;;12.63;nan
9189;BME280;34313;50.780;6.084;2024-02-15T07:12:16;99499.13;;;12.71;nan
9189;BME280;34313;50.780;6.084;2024-02-15T07:14:41;99499.88;;;12.73;nan
9189;BME280;34313;50.780;6.084;2024-02-15T07:17:06;99489.16;;;12.62;nan
9189;BME280;34313;50.780;6.084;2024-02-15T07:19:32;99500.06;;;12.70;nan
9189;BME280;34313;50.780;6.084;2024-02-15T07:22:02;99492.44;;;12.65;nan
9189;BME280;34313;50.780;6.084;2024-02-15T07:24:27;99503.25;;;12.75;nan
9189;BME280;34313;50.780;6.084;2024-02-15T07:26:53;99502.31;;;12.76;nan
9189;BME280;34313;50.780;6.084;2024-02-15T07:29:21;99500.31;;;12.80;nan
9189;BME280;34313;50.780;6.084;2024-02-15T07:31:48;99501.69;;;12.85;nan
9189;BME280;34313;50.780;6.084;2024-02-15T07:34:14;99502.44;;;12.88;nan
9189;BME280;34313;50.780;6.084;2024-02-15T07:36:39;99502.44;;;12.88;nan
9189;BME280;34313;50.780;6.084;2024-02-15T07:39:07;99502.44;;;12.88;nan
9189;BME280;34313;50.780;6.084;2024-02-15T07:41:37;99505.81;;;12.90;nan
9189;BME280;34313;50.780;6.084;2024-02-15T07:44:03;99509.09;;;12.93;nan
9189;BME280;34313;50.780;6.084;2024-02-15T07:46:28;99503.41;;;12.99;nan
9189;BME280;34313;50.780;6.084;2024-02-15T07:48:54;99496.41;;;13.11;nan
9189;BME280;34313;50.780;6.084;2024-02-15T07:51:21;99503.19;;;13.15;nan
9189;BME280;34313;50.780;6.084;2024-02-15T07:53:48;99501.38;;;13.29;nan
9189;BME280;34313;50.780;6.084;2024-02-15T07:56:15;99499.81;;;13.39;nan
9189;BME280;34313;50.780;6.084;2024-02-15T07:58:44;99502.56;;;13.50;nan
9189;BME280;34313;50.780;6.084;2024-02-15T08:01:16;99497.16;;;13.65;nan
9189;BME280;34313;50.780;6.084;2024-02-15T08:03:42;99496.69;;;13.71;nan
9189;BME280;34313;50.780;6.084;2024-02-15T08:06:11;99507.91;;;13.87;nan
9189;BME280;34313;50.780;6.084;2024-02-15T08:08:39;99506.50;;;13.94;nan
9189;BME280;34313;50.780;6.084;2024-02-15T08:11:06;99502.00;;;14.08;nan
9189;BME280;34313;50.780;6.084;2024-02-15T08:13:35;99503.47;;;14.12;nan
9189;BME280;34313;50.780;6.084;2024-02-15T08:16:03;99494.63;;;14.24;nan
9189;BME280;34313;50.780;6.084;2024-02-15T08:18:30;99501.25;;;14.30;nan
9189;BME280;34313;50.780;6.084;2024-02-15T08:20:56;99503.63;;;14.46;nan
9189;BME280;34313;50.780;6.084;2024-02-15T08:23:22;99487.28;;;14.52;nan
9189;BME280;34313;50.780;6.084;2024-02-15T08:25:47;99491.94;;;14.72;nan
9189;BME280;34313;50.780;6.084;2024-02-15T08:28:13;99496.56;;;14.82;nan
9189;BME280;34313;50.780;6.084;2024-02-15T08:30:38;99492.09;;;14.93;nan
9189;BME280;34313;50.780;6.084;2024-02-15T08:33:03;99490.56;;;15.02;nan
9189;BME280;34313;50.780;6.084;2024-02-15T08:35:29;99495.16;;;15.11;nan
9189;BME280;34313;50.780;6.084;2024-02-15T08:37:54;99488.41;;;15.30;nan
9189;BME280;34313;50.780;6.084;2024-02-15T08:40:21;99495.53;;;15.41;nan
9189;BME280;34313;50.780;6.084;2024-02-15T08:42:50;99483.97;;;15.30;nan
9189;BME280;34313;50.780;6.084;2024-02-15T08:45:16;99482.75;;;15.35;nan
9189;BME280;34313;50.780;6.084;2024-02-15T08:47:42;99483.59;;;15.46;nan
9189;BME280;34313;50.780;6.084;2024-02-15T08:50:09;99480.09;;;15.57;nan
9189;BME280;34313;50.780;6.084;2024-02-15T08:52:39;99474.88;;;15.67;nan
9189;BME280;34313;50.780;6.084;2024-02-15T08:55:08;99473.69;;;15.71;nan
9189;BME280;34313;50.780;6.084;2024-02-15T08:57:35;99467.63;;;15.92;nan
9189;BME280;34313;50.780;6.084;2024-02-15T09:00:03;99473.88;;;16.13;nan
9189;BME280;34313;50.780;6.084;2024-02-15T09:02:31;99468.63;;;16.23;nan
9189;BME280;34313;50.780;6.084;2024-02-15T09:04:58;99468.84;;;16.31;nan
9189;BME280;34313;50.780;6.084;2024-02-15T09:07:24;99471.66;;;16.51;nan
9189;BME280;34313;50.780;6.084;2024-02-15T09:09:49;99467.97;;;16.63;nan
9189;BME280;34313;50.780;6.084;2024-02-15T09:12:14;99471.09;;;16.68;nan
9189;BME280;34313;50.780;6.084;2024-02-15T09:14:40;99472.59;;;16.82;nan
9189;BME280;34313;50.780;6.084;2024-02-15T09:17:05;99479.75;;;17.03;nan
9189;BME280;34313;50.780;6.084;2024-02-15T09:19:34;99474.16;;;17.06;nan
9189;BME280;34313;50.780;6.084;2024-02-15T09:21:59;99487.31;;;17.07;nan
9189;BME280;34313;50.780;6.084;2024-02-15T09:24:25;99482.53;;;17.22;nan
9189;BME280;34313;50.780;6.084;2024-02-15T09:26:51;99484.38;;;17.00;nan
9189;BME280;34313;50.780;6.084;2024-02-15T09:29:17;99487.41;;;16.96;nan
9189;BME280;34313;50.780;6.084;2024-02-15T09:31:43;99477.84;;;17.14;nan
9189;BME280;34313;50.780;6.084;2024-02-15T09:34:08;99476.63;;;16.97;nan
9189;BME280;34313;50.780;6.084;2024-02-15T09:36:34;99476.75;;;17.17;nan
9189;BME280;34313;50.780;6.084;2024-02-15T09:39:03;99476.50;;;17.30;nan
9189;BME280;34313;50.780;6.084;2024-02-15T09:41:28;99476.69;;;17.38;nan
9189;BME280;34313;50.780;6.084;2024-02-15T09:43:53;99479.69;;;17.45;nan
9189;BME280;34313;50.780;6.084;2024-02-15T09:46:19;99478.16;;;17.52;nan
9189;BME280;34313;50.780;6.084;2024-02-15T09:48:50;99473.03;;;17.70;nan
9189;BME280;34313;50.780;6.084;2024-02-15T09:51:18;99475.44;;;17.73;nan
9189;BME280;34313;50.780;6.084;2024-02-15T09:53:46;99471.44;;;17.98;nan
9189;BME280;34313;50.780;6.084;2024-02-15T09:56:13;99469.09;;;18.14;nan
9189;BME280;34313;50.780;6.084;2024-02-15T09:58:39;99476.53;;;18.40;nan
9189;BME280;34313;50.780;6.084;2024-02-15T10:01:05;99480.19;;;18.49;nan
9189;BME280;34313;50.780;6.084;2024-02-15T10:03:37;99479.78;;;18.34;nan
9189;BME280;34313;50.780;6.084;2024-02-15T10:06:02;99470.06;;;18.52;nan
9189;BME280;34313;50.780;6.084;2024-02-15T10:08:29;99475.28;;;18.64;nan
9189;BME280;34313;50.780;6.084;2024-02-15T10:11:07;99474.84;;;18.59;nan
9189;BME280;34313;50.780;6.084;2024-02-15T10:13:34;99464.28;;;18.67;nan
9189;BME280;34313;50.780;6.084;2024-02-15T10:15:59;99471.16;;;18.79;nan
9189;BME280;34313;50.780;6.084;2024-02-15T10:18:24;99466.53;;;18.81;nan
9189;BME280;34313;50.780;6.084;2024-02-15T10:20:58;99465.28;;;18.85;nan
9189;BME280;34313;50.780;6.084;2024-02-15T10:23:24;99467.41;;;18.82;nan
9189;BME280;34313;50.780;6.084;2024-02-15T10:25:49;99466.00;;;18.87;nan
9189;BME280;34313;50.780;6.084;2024-02-15T10:28:20;99472.44;;;18.95;nan
9189;BME280;34313;50.780;6.084;2024-02-15T10:30:48;99470.50;;;18.87;nan
9189;BME280;34313;50.780;6.084;2024-02-15T10:33:26;99458.09;;;18.96;nan
9189;BME280;34313;50.780;6.084;2024-02-15T10:36:10;99469.16;;;19.11;nan
9189;BME280;34313;50.780;6.084;2024-02-15T10:38:38;99458.34;;;19.12;nan
9189;BME280;34313;50.780;6.084;2024-02-15T10:41:05;99460.84;;;19.23;nan
9189;BME280;34313;50.780;6.084;2024-02-15T10:43:30;99461.47;;;19.35;nan
9189;BME280;34313;50.780;6.084;2024-02-15T10:45:58;99450.44;;;19.20;nan
9189;BME280;34313;50.780;6.084;2024-02-15T10:48:24;99457.06;;;19.16;nan
9189;BME280;34313;50.780;6.084;2024-02-15T10:50:51;99453.03;;;19.02;nan
9189;BME280;34313;50.780;6.084;2024-02-15T10:53:26;99450.50;;;18.91;nan
9189;BME280;34313;50.780;6.084;2024-02-15T10:56:21;99457.56;;;18.92;nan
9189;BME280;34313;50.780;6.084;2024-02-15T10:58:55;99449.28;;;18.66;nan
9189;BME280;34313;50.780;6.084;2024-02-15T11:01:27;99438.47;;;18.58;nan
9189;BME280;34313;50.780;6.084;2024-02-15T11:03:59;99446.88;;;18.63;nan
9189;BME280;34313;50.780;6.084;2024-02-15T11:06:30;99431.69;;;18.73;nan
9189;BME280;34313;50.780;6.084;2024-02-15T11:08:55;99435.22;;;18.83;nan
9189;BME280;34313;50.780;6.084;2024-02-15T11:11:22;99425.78;;;18.79;nan
9189;BME280;34313;50.780;6.084;2024-02-15T11:13:48;99423.41;;;18.66;nan
9189;BME280;34313;50.780;6.084;2024-02-15T11:16:49;99422.13;;;18.70;nan
9189;BME280;34313;50.780;6.084;2024-02-15T11:21:59;99431.72;;;18.54;nan
9189;BME280;34313;50.780;6.084;2024-02-15T11:24:30;99416.00;;;18.50;nan
9189;BME280;34313;50.780;6.084;2024-02-15T11:27:00;99417.94;;;18.68;nan
9189;BME280;34313;50.780;6.084;2024-02-15T11:29:53;99415.97;;;18.70;nan
9189;BME280;34313;50.780;6.084;2024-02-15T11:35:14;99406.84;;;18.73;nan
9189;BME280;34313;50.780;6.084;2024-02-15T11:40:20;99394.44;;;18.81;nan
9189;BME280;34313;50.780;6.084;2024-02-15T11:42:48;99395.31;;;18.82;nan
9189;BME280;34313;50.780;6.084;2024-02-15T11:45:15;99387.66;;;18.97;nan
9189;BME280;34313;50.780;6.084;2024-02-15T11:47:47;99398.06;;;19.00;nan
9189;BME280;34313;50.780;6.084;2024-02-15T11:50:14;99375.97;;;19.07;nan
9189;BME280;34313;50.780;6.084;2024-02-15T11:52:50;99382.09;;;18.90;nan
9189;BME280;34313;50.780;6.084;2024-02-15T11:55:20;99377.97;;;18.96;nan
9189;BME280;34313;50.780;6.084;2024-02-15T11:57:59;99367.47;;;18.84;nan
9189;BME280;34313;50.780;6.084;2024-02-15T12:00:31;99370.63;;;19.07;nan
9189;BME280;34313;50.780;6.084;2024-02-15T12:03:16;99365.22;;;18.80;nan
9189;BME280;34313;50.780;6.084;2024-02-15T12:06:00;99365.53;;;18.67;nan
9189;BME280;34313;50.780;6.084;2024-02-15T12:08:50;99370.81;;;18.39;nan
9189;BME280;34313;50.780;6.084;2024-02-15T12:11:34;99350.28;;;18.40;nan
9189;BME280;34313;50.780;6.084;2024-02-15T12:14:18;99350.16;;;18.41;nan
9189;BME280;34313;50.780;6.084;2024-02-15T12:17:06;99344.81;;;18.31;nan
9189;BME280;34313;50.780;6.084;2024-02-15T12:19:52;99336.41;;;18.26;nan
9189;BME280;34313;50.780;6.084;2024-02-15T12:22:25;99340.63;;;18.29;nan
9189;BME280;34313;50.780;6.084;2024-02-15T12:24:56;99330.81;;;18.10;nan
9189;BME280;34313;50.780;6.084;2024-02-15T12:27:22;99324.63;;;18.19;nan
9189;BME280;34313;50.780;6.084;2024-02-15T12:29:55;99334.03;;;18.23;nan
9189;BME280;34313;50.780;6.084;2024-02-15T12:32:23;99329.09;;;18.28;nan
9189;BME280;34313;50.780;6.084;2024-02-15T12:34:50;99326.97;;;18.42;nan
9189;BME280;34313;50.780;6.084;2024-02-15T12:37:25;99325.81;;;18.54;nan
9189;BME280;34313;50.780;6.084;2024-02-15T12:39:51;99315.66;;;18.67;nan
9189;BME280;34313;50.780;6.084;2024-02-15T12:42:17;99318.59;;;18.74;nan
9189;BME280;34313;50.780;6.084;2024-02-15T12:44:44;99318.41;;;18.76;nan
9189;BME280;34313;50.780;6.084;2024-02-15T12:47:21;99307.66;;;18.67;nan
9189;BME280;34313;50.780;6.084;2024-02-15T12:49:47;99303.22;;;18.48;nan
9189;BME280;34313;50.780;6.084;2024-02-15T12:52:34;99299.31;;;18.43;nan
9189;BME280;34313;50.780;6.084;2024-02-15T12:55:13;99294.53;;;18.46;nan
9189;BME280;34313;50.780;6.084;2024-02-15T12:57:40;99291.84;;;18.46;nan
9189;BME280;34313;50.780;6.084;2024-02-15T13:00:08;99287.75;;;18.52;nan
9189;BME280;34313;50.780;6.084;2024-02-15T13:02:39;99290.13;;;18.55;nan
9189;BME280;34313;50.780;6.084;2024-02-15T13:05:05;99279.94;;;18.41;nan
9189;BME280;34313;50.780;6.084;2024-02-15T13:07:33;99278.13;;;18.31;nan
9189;BME280;34313;50.780;6.084;2024-02-15T13:09:58;99274.88;;;18.38;nan
9189;BME280;34313;50.780;6.084;2024-02-15T13:12:23;99270.25;;;18.30;nan
9189;BME280;34313;50.780;6.084;2024-02-15T13:14:49;99273.94;;;18.29;nan
9189;BME280;34313;50.780;6.084;2024-02-15T13:17:15;99270.75;;;17.86;nan
9189;BME280;34313;50.780;6.084;2024-02-15T13:19:45;99261.78;;;17.97;nan
9189;BME280;34313;50.780;6.084;2024-02-15T13:22:12;99263.47;;;17.88;nan
9189;BME280;34313;50.780;6.084;2024-02-15T13:24:37;99256.88;;;17.92;nan
9189;BME280;34313;50.780;6.084;2024-02-15T13:27:04;99249.84;;;18.01;nan
9189;BME280;34313;50.780;6.084;2024-02-15T13:29:29;99249.56;;;17.94;nan
9189;BME280;34313;50.780;6.084;2024-02-15T13:31:58;99247.72;;;17.95;nan
9189;BME280;34313;50.780;6.084;2024-02-15T13:34:25;99242.25;;;17.97;nan
9189;BME280;34313;50.780;6.084;2024-02-15T13:36:50;99238.03;;;17.84;nan
9189;BME280;34313;50.780;6.084;2024-02-15T13:39:15;99238.19;;;18.02;nan
9189;BME280;34313;50.780;6.084;2024-02-15T13:41:41;99231.44;;;18.08;nan
9189;BME280;34313;50.780;6.084;2024-02-15T13:44:06;99219.22;;;18.05;nan